Tropical Cyclones
[Index]
Main Index Home Page Stock Weather Photos Extreme Storms Discussion Storm News and Storm Chasing Reports Tropical Cyclones / Hurricanes / Typhoons Weather Data and Links Wild Fires / Bushfires Weather Observation Techniques Weather Picture Catalogue Tornado Pictures and Reports Stock Video Footage and DVDs for sale
Season 1960-1961 Tropical Cyclone 196061_02 Track Map
Season 1960-1961 Summaries: [BoM-AU] [JTWC-AU] [JTWC-SIO] [JTWC-SPAC] [JTWC-SH]
<<- Previous TC | BoM 1960-1961 Season | Next TC ->>

click for intensity scale information  Lat/long Grid: Show Hide

 Date Labels: Show Hide

Bureau of Meteorology Tropical Cyclone Data

Name: 196061_02
Number: 331 / 196061_02

29 Dec 1960 01:00 UTC to 03 Jan 1961 01:00 UTC

    date/time    lat    long    hPa   cat  kts
1960-12-29 01    7.0    96.0   1000                     
1960-12-29 04    7.3    95.8   1000                     
1960-12-29 07    7.6    95.5   1000                     
1960-12-29 10    8.0    95.2   1000                     
1960-12-29 16    8.8    94.7   1000                     
1960-12-29 19    9.2    94.5   1000                     
1960-12-29 22    9.6    94.2   1000                     
1960-12-30 01   10.0    94.0   1000                     
1960-12-30 04   10.2    94.0   1000                     
1960-12-30 07   10.5    94.0   1000                     
1960-12-30 10   10.7    94.0   1000                     
1960-12-30 16   11.2    94.0   1000                     
1960-12-30 19   11.5    94.0   1000                     
1960-12-30 22   11.8    94.0   1000                     
1960-12-31 01   12.0    94.0   1000                     
1960-12-31 04   12.1    94.1   1000                     
1960-12-31 07   12.3    94.3   1000                     
1960-12-31 10   12.4    94.4   1000                     
1960-12-31 19   12.8    94.8   1000                     
1960-12-31 22   12.9    94.9   1000                     
1961-01-01 01   13.0    95.0   1000                     
1961-01-01 04   13.2    95.1   1000                     
1961-01-01 07   13.5    95.3   1000                     
1961-01-01 10   13.7    95.4   1000                     
1961-01-01 22   14.8    95.9   1000                     
1961-01-02 01   15.0    96.0   1000                     
1961-01-02 04   15.2    96.2   1000                     
1961-01-02 07   15.5    96.5   1000                     
1961-01-02 10   15.7    96.7   1000                     
1961-01-02 16   16.2    97.2   1000                     
1961-01-02 19   16.5    97.5   1000                     
1961-01-02 22   16.8    97.8   1000                     
1961-01-03 01   17.0    98.0   1000                     
Winds are 10-min average.

Tropical cyclone tracks developed by Michael Bath using data from the Bureau of Meteorology and Google Maps.


[Australian Severe Weather index] [Copyright Notice] [Email Contacts] [Search This Site] [Privacy Policy]
Document: tropical_cyclone_196061_02.htm Updated: 30 May 2013